Ogulin, Croatia

1:59 AM CEST on July 30, 2014 (GMT +0200)
Ostarije - Karlovac county (IOSTARIJ2) Elev 1071 ft | 45.20 °N, 15.27 °E | Change Station

Current weather conditions updated 3 seconds ago

Mostly Cloudy
Mostly Cloudy
64.8 °F
Feels Like 64.8 °F
N
0.0
Wind Variable Wind from NW
Gusts 0.0 mph

Today is forecast to be nearly the same temperature as yesterday. Thunderstorms, some may contain heavy rain.

Today
High -- | Low -- °F
--% Chance of Precip.
Yesterday
High -- | Low -- °F
Precip. -- in
5:41 AM 8:29 PM
Waxing Crescent, 8% visible
Pressure 29.77 in
Visibility 6.2 miles
Clouds Few 4900 ft
Mostly Cloudy 10000 ft
Dew Point 60 °F
Humidity 85%
Rainfall 0.03 in
Snow Depth Not available.
UV 0 out of 12
Pollen Not available.
Air Quality Not available.
Flu Activity Not available.
METAR LJCE 292330Z AUTO 00000KT 9999 FEW049/// BKN100/// 20/19 Q1008

More Conditions Fewer Conditions

Pressure 29.77 in
Visibility 6.2 miles
Clouds Few 4900 ft
Mostly Cloudy 10000 ft
Dew Point 60 °F
Humidity 85%
Rainfall 0.03 in
Snow Depth Not available.
UV 0 out of 12
Pollen Not available.
Air Quality Not available.
Flu Activity Not available.
METAR LJCE 292330Z AUTO 00000KT 9999 FEW049/// BKN100/// 20/19 Q1008

More Conditions Fewer Conditions

10-Day Weather Forecast

Almanac

Astronomy

Jul. 30, 2014 Rise Set
Actual Time 5:41 AM CEST 8:29 PM CEST
Civil Twilight 5:06 AM CEST 9:03 PM CEST
Nautical Twilight 4:23 AM CEST 9:46 PM CEST
Astronomical Twilight 3:32 AM CEST 10:37 PM CEST
Moon 9:08 AM CEST (7/30) 9:50 PM CEST (7/30)
Length of Visible Light 15h 56m
Length of Day
14h 48m
Tomorrow will be 2m 23s shorter.
Waxing Crescent, 8% of the Moon is Illuminated
Jul 29
Waxing Crescent
Aug 3
First Quarter
Aug 10
Full
Aug 17
Last Quarter
Aug 25
New

Yesterday's Extremes

Country Highs Country Lows

Community

WunderPhotos

Upload Photos

1,738,916 photos uploaded!

Nearby

Snow Depth

Not available.

Earthquake Activity

City Distance Mag. Time & Date
No recent earthquake activity has been reported nearby.
Minimum magnitude displayed is 2.5.

Coastal Water Temperatures

Place Temperature
No Stations Reporting

Nearby Weather Stations

Station Location Temp. Dew Point Humidity Wind Precip. Elev Updated Type
Ostarije - Karlovac county, Ostarije 64.8 °F 60 °F 85% NW  at  0.0 mph 0.03 in / hr 1071 ft 1:59 AM CEST Rapid Fire
Stajnica, Jezerane 60.3 °F 60 °F 98% SW  at  1.3 mph 0.04 in / hr 1677 ft 1:57 AM CEST Normal
Opcina Brinje, Brinje 63.5 °F 53 °F 68% East  at  0.9 mph 0.00 in / hr 1558 ft 1:59 AM CEST Rapid Fire
Karlovac 67.1 °F 58 °F 72% North  at  0.0 mph 0.00 in / hr 390 ft 1:46 AM CEST Normal

Show More Stations Show Fewer Stations